createdAt,value
2023-04-15T00:00:51.393Z,-3.81
2023-04-15T00:01:55.269Z,-3.84
2023-04-15T00:02:58.320Z,-3.81
2023-04-15T00:04:03.793Z,-3.81
2023-04-15T00:05:07.379Z,-3.81
2023-04-15T00:06:11.158Z,-3.77
2023-04-15T00:07:14.884Z,-3.78
2023-04-15T00:08:18.762Z,-3.79
2023-04-15T00:09:20.960Z,-3.78
2023-04-15T00:10:24.663Z,-3.82
2023-04-15T00:11:27.222Z,-3.80
2023-04-15T00:12:31.031Z,-3.80
2023-04-15T00:13:34.314Z,-3.84
2023-04-15T00:14:38.291Z,-3.80
2023-04-15T00:15:41.221Z,-3.80
2023-04-15T00:16:45.048Z,-3.80
2023-04-15T00:17:48.079Z,-3.82
2023-04-15T00:18:52.049Z,-3.83
2023-04-15T00:19:56.104Z,-3.80
2023-04-15T00:20:59.806Z,-3.81
2023-04-15T00:22:02.342Z,-3.82
2023-04-15T00:23:05.903Z,-3.83
2023-04-15T00:24:08.661Z,-3.83
2023-04-15T00:25:12.250Z,-3.85
2023-04-15T00:26:14.926Z,-3.85
2023-04-15T00:27:18.474Z,-3.85
2023-04-15T00:28:21.237Z,-3.86
2023-04-15T00:29:24.989Z,-3.86
2023-04-15T00:30:27.171Z,-3.88
2023-04-15T00:31:31.633Z,-3.89
2023-04-15T00:32:34.499Z,-4.02
2023-04-15T00:33:38.141Z,-3.92
2023-04-15T00:34:40.856Z,-3.89
2023-04-15T00:35:45.954Z,-3.91
2023-04-15T00:36:48.483Z,-3.97
2023-04-15T00:37:52.727Z,-4.08
2023-04-15T00:38:55.275Z,-3.92
2023-04-15T00:39:58.975Z,-3.98
2023-04-15T00:41:01.805Z,-3.92
2023-04-15T00:42:06.521Z,-3.97
2023-04-15T00:43:09.197Z,-3.96
2023-04-15T00:44:12.851Z,-3.96
2023-04-15T00:45:15.885Z,-3.95
2023-04-15T00:46:22.193Z,-3.95
2023-04-15T00:47:25.306Z,-3.98
2023-04-15T00:48:30.089Z,-3.97
2023-04-15T00:49:32.672Z,-3.94
2023-04-15T00:50:36.472Z,-3.95
2023-04-15T00:51:40.074Z,-3.95
2023-04-15T00:52:43.959Z,-3.95
2023-04-15T00:53:46.611Z,-3.99
2023-04-15T00:54:51.432Z,-3.98
2023-04-15T00:55:54.908Z,-3.97
2023-04-15T00:56:59.095Z,-3.95
2023-04-15T00:58:02.130Z,-3.98
2023-04-15T00:59:06.454Z,-3.99
2023-04-15T01:00:11.540Z,-4.00
2023-04-15T01:01:15.341Z,-4.07
2023-04-15T01:02:18.310Z,-4.02
2023-04-15T01:03:22.282Z,-4.03
2023-04-15T01:04:25.664Z,-4.02
2023-04-15T01:05:30.482Z,-4.05
2023-04-15T01:06:33.822Z,-4.05
2023-04-15T01:07:38.853Z,-4.06
2023-04-15T01:08:41.799Z,-4.08
2023-04-15T01:09:45.901Z,-4.07
2023-04-15T01:10:48.989Z,-4.08
2023-04-15T01:11:52.675Z,-4.07
2023-04-15T01:12:55.309Z,-4.06
2023-04-15T01:14:00.716Z,-4.05
2023-04-15T01:15:03.805Z,-4.04
2023-04-15T01:16:08.934Z,-4.06
2023-04-15T01:17:11.595Z,-4.03
2023-04-15T01:18:16.018Z,-4.06
2023-04-15T01:19:18.930Z,-4.12
2023-04-15T01:20:23.756Z,-4.09
2023-04-15T01:21:27.159Z,-4.06
2023-04-15T01:22:30.955Z,-4.09
2023-04-15T01:23:37.277Z,-4.05
2023-04-15T01:24:40.900Z,-4.21
2023-04-15T01:25:45.982Z,-4.08
2023-04-15T01:26:50.815Z,-4.09
2023-04-15T01:27:53.596Z,-4.10
2023-04-15T01:28:57.833Z,-4.10
2023-04-15T01:30:00.455Z,-4.10
2023-04-15T01:31:09.105Z,-4.10
2023-04-15T01:32:12.232Z,-4.12
2023-04-15T01:33:34.213Z,-4.11
2023-04-15T01:34:56.802Z,-4.14
2023-04-15T01:36:18.971Z,-4.14
2023-04-15T01:37:21.927Z,-4.17
2023-04-15T01:38:25.784Z,-4.15
2023-04-15T01:39:27.946Z,-4.15
2023-04-15T01:40:31.560Z,-4.16
2023-04-15T01:41:36.865Z,-4.18
2023-04-15T01:42:41.869Z,-4.17
2023-04-15T01:43:46.073Z,-4.19
2023-04-15T01:44:51.323Z,-4.17
2023-04-15T01:45:55.239Z,-4.16
2023-04-15T01:47:00.269Z,-4.16
2023-04-15T01:48:04.252Z,-4.17
2023-04-15T01:49:08.673Z,-4.18
2023-04-15T01:50:12.436Z,-4.17
2023-04-15T01:51:17.504Z,-4.16
2023-04-15T01:52:21.393Z,-4.17
2023-04-15T01:53:26.024Z,-4.15
2023-04-15T01:54:29.780Z,-4.15
2023-04-15T01:55:35.121Z,-4.12
2023-04-15T01:56:40.348Z,-4.14
2023-04-15T02:14:13.024Z,-4.01
2023-04-15T02:15:17.056Z,-4.06
2023-04-15T02:16:22.190Z,-3.94
2023-04-15T02:17:26.294Z,-4.02
2023-04-15T02:18:31.271Z,-4.03
2023-04-15T02:19:35.086Z,-3.87
2023-04-15T02:20:40.296Z,-3.83
2023-04-15T02:21:44.092Z,-3.83
2023-04-15T02:22:49.193Z,-3.81
2023-04-15T02:23:54.245Z,-3.85
2023-04-15T02:24:59.195Z,-3.79
2023-04-15T02:26:02.993Z,-3.76
2023-04-15T02:27:07.906Z,-3.77
2023-04-15T02:28:12.769Z,-3.79
2023-04-15T02:29:18.101Z,-3.70
2023-04-15T02:30:24.235Z,-3.65
2023-04-15T02:31:28.267Z,-3.64
2023-04-15T02:32:33.208Z,-3.60
2023-04-15T02:33:38.008Z,-3.58
2023-04-15T02:34:43.186Z,-3.54
2023-04-15T02:35:47.628Z,-3.54
2023-04-15T02:36:55.184Z,-3.54
2023-04-15T02:37:58.985Z,-3.49
2023-04-15T02:39:04.442Z,-3.49
2023-04-15T02:40:10.560Z,-3.42
2023-04-15T02:41:15.463Z,-3.48
2023-04-15T02:42:19.320Z,-3.40
2023-04-15T02:43:23.753Z,-3.33
2023-04-15T02:44:29.288Z,-3.32
2023-04-15T02:45:34.412Z,-3.31
2023-04-15T02:46:38.452Z,-3.27
2023-04-15T02:47:43.517Z,-3.29
2023-04-15T02:48:47.325Z,-3.29
2023-04-15T02:49:52.207Z,-3.31
2023-04-15T02:51:11.985Z,-3.29
2023-04-15T02:52:16.855Z,-3.26
2023-04-15T02:53:20.987Z,-3.24
2023-04-15T02:54:26.312Z,-3.18
2023-04-15T02:55:30.205Z,-3.18
2023-04-15T02:56:34.777Z,-3.14
2023-04-15T02:57:39.466Z,-3.12
2023-04-15T02:58:46.465Z,-3.11
2023-04-15T02:59:51.683Z,-3.09
2023-04-15T03:00:56.694Z,-3.05
2023-04-15T03:02:01.463Z,-3.02
2023-04-15T03:03:08.120Z,-3.15
2023-04-15T03:04:12.038Z,-2.99
2023-04-15T03:05:17.014Z,-2.98
2023-04-15T03:06:20.885Z,-2.96
2023-04-15T03:07:25.599Z,-2.94
2023-04-15T03:08:29.507Z,-3.05
2023-04-15T03:09:34.025Z,-2.92
2023-04-15T03:10:37.808Z,-2.87
2023-04-15T03:11:42.587Z,-2.83
2023-04-15T03:12:46.452Z,-2.81
2023-04-15T03:13:50.966Z,-2.75
2023-04-15T03:14:56.537Z,-2.70
2023-04-15T03:16:01.705Z,-2.69
2023-04-15T03:17:05.555Z,-2.66
2023-04-15T03:18:10.592Z,-2.63
2023-04-15T03:19:14.452Z,-2.66
2023-04-15T03:20:19.058Z,-2.64
2023-04-15T03:21:24.123Z,-2.63
2023-04-15T03:22:29.002Z,-2.64
2023-04-15T03:23:33.110Z,-2.64
2023-04-15T03:24:38.084Z,-2.72
2023-04-15T03:25:42.251Z,-2.59
2023-04-15T03:26:47.601Z,-2.59
2023-04-15T03:27:51.463Z,-2.55
2023-04-15T03:28:56.258Z,-2.54
2023-04-15T03:30:01.475Z,-2.51
2023-04-15T03:31:06.538Z,-2.56
2023-04-15T03:32:10.314Z,-2.54
2023-04-15T03:33:15.102Z,-2.50
2023-04-15T03:34:19.044Z,-2.52
2023-04-15T03:35:23.889Z,-2.45
2023-04-15T03:36:31.579Z,-2.46
2023-04-15T03:37:35.317Z,-2.39
2023-04-15T03:38:40.255Z,-2.37
2023-04-15T03:39:44.030Z,-2.35
2023-04-15T03:40:48.974Z,-2.30
2023-04-15T03:41:52.747Z,-2.26
2023-04-15T03:42:57.632Z,-2.36
2023-04-15T03:44:01.466Z,-2.22
2023-04-15T03:45:08.249Z,-2.20
2023-04-15T03:46:12.165Z,-2.22
2023-04-15T03:47:17.283Z,-2.21
2023-04-15T03:48:21.318Z,-2.14
2023-04-15T03:49:26.261Z,-2.15
2023-04-15T03:50:29.952Z,-2.09
2023-04-15T03:51:35.028Z,-2.08
2023-04-15T03:52:38.884Z,-2.13
2023-04-15T03:53:43.834Z,-2.16
2023-04-15T03:54:47.979Z,-2.17
2023-04-15T03:55:52.776Z,-2.15
2023-04-15T03:56:57.099Z,-2.13
2023-04-15T03:58:01.992Z,-2.11
2023-04-15T03:59:05.707Z,-2.05
2023-04-15T04:00:12.738Z,-2.07
2023-04-15T04:01:16.921Z,-2.02
2023-04-15T04:02:21.913Z,-2.08
2023-04-15T04:04:31.219Z,-2.09
2023-04-15T04:05:39.146Z,-2.10
2023-04-15T04:06:42.972Z,-2.12
2023-04-15T04:07:47.634Z,-2.09
2023-04-15T04:08:51.388Z,-2.08
2023-04-15T04:09:56.356Z,-2.07
2023-04-15T04:11:00.583Z,-1.96
2023-04-15T04:12:05.531Z,-2.12
2023-04-15T04:13:09.367Z,-1.95
2023-04-15T04:14:14.004Z,-1.94
2023-04-15T04:15:19.349Z,-1.92
2023-04-15T04:16:24.433Z,-1.94
2023-04-15T04:17:28.330Z,-1.93
2023-04-15T04:18:33.468Z,-1.97
2023-04-15T04:19:37.367Z,-1.92
2023-04-15T04:20:42.065Z,-1.89
2023-04-15T04:21:45.859Z,-1.92
2023-04-15T04:22:50.390Z,-1.84
2023-04-15T04:23:54.305Z,-1.80
2023-04-15T04:24:59.785Z,-1.85
2023-04-15T04:26:03.491Z,-1.85
2023-04-15T04:27:08.626Z,-1.80
2023-04-15T04:28:12.689Z,-1.74
2023-04-15T04:29:17.502Z,-1.78
2023-04-15T04:30:23.789Z,-1.77
2023-04-15T04:31:27.751Z,-1.73
2023-04-15T04:32:32.712Z,-1.69
2023-04-15T04:33:36.567Z,-1.62
2023-04-15T04:34:41.016Z,-1.61
2023-04-15T04:35:44.825Z,-1.57
2023-04-15T04:36:49.278Z,-1.51
2023-04-15T04:37:54.015Z,-1.49
2023-04-15T04:38:58.902Z,-1.44
2023-04-15T04:40:02.703Z,-1.42
2023-04-15T04:41:07.759Z,-1.40
2023-04-15T04:42:11.850Z,-1.36
2023-04-15T04:43:16.838Z,-1.33
2023-04-15T04:44:20.533Z,-1.31
2023-04-15T04:45:27.576Z,-1.30
2023-04-15T04:46:31.423Z,-1.25
2023-04-15T04:47:35.940Z,-1.21
2023-04-15T04:48:40.866Z,-1.18
2023-04-15T04:49:44.593Z,-1.12
2023-04-15T04:50:49.629Z,-1.13
2023-04-15T04:51:53.854Z,-1.06
2023-04-15T04:52:58.803Z,-1.05
2023-04-15T04:54:03.697Z,-1.01
2023-04-15T04:55:09.874Z,-0.98
2023-04-15T04:56:14.618Z,-0.95
2023-04-15T04:57:18.474Z,-0.95
2023-04-15T04:58:23.356Z,-0.90
2023-04-15T04:59:27.186Z,-0.88
2023-04-15T05:00:33.218Z,-0.81
2023-04-15T05:01:37.441Z,-0.86
2023-04-15T05:02:44.408Z,-0.80
2023-04-15T05:03:48.329Z,-0.75
2023-04-15T05:04:54.638Z,-0.75
2023-04-15T05:05:58.447Z,-0.74
2023-04-15T05:07:03.015Z,-0.69
2023-04-15T05:08:07.340Z,-0.64
2023-04-15T05:09:12.076Z,-0.72
2023-04-15T05:10:17.792Z,-0.61
2023-04-15T05:11:22.902Z,-0.61
2023-04-15T05:12:26.882Z,-0.69
2023-04-15T05:13:31.911Z,-0.65
2023-04-15T05:14:35.945Z,-0.63
2023-04-15T05:15:43.566Z,-0.64
2023-04-15T05:16:47.411Z,-0.61
2023-04-15T05:17:51.982Z,-0.58
2023-04-15T05:18:55.839Z,-0.58
2023-04-15T05:20:00.392Z,-0.53
2023-04-15T05:21:04.248Z,-0.54
2023-04-15T05:22:09.650Z,-0.42
2023-04-15T05:23:14.464Z,-0.35
2023-04-15T05:24:18.566Z,-0.29
2023-04-15T05:25:23.609Z,-0.26
2023-04-15T05:26:27.823Z,-0.22
2023-04-15T05:27:32.650Z,-0.16
2023-04-15T05:28:36.527Z,-0.13
2023-04-15T05:29:41.253Z,-0.09
2023-04-15T05:30:46.696Z,-0.05
2023-04-15T05:31:51.583Z,-0.06
2023-04-15T05:32:55.413Z,-0.14
2023-04-15T05:33:59.845Z,0.02
2023-04-15T05:35:03.605Z,0.07
2023-04-15T05:36:08.448Z,0.07
2023-04-15T05:37:12.219Z,0.10
2023-04-15T05:38:16.720Z,0.18
2023-04-15T05:39:20.422Z,0.19
2023-04-15T05:40:25.172Z,0.13
2023-04-15T05:41:28.910Z,0.17
2023-04-15T05:42:33.465Z,0.24
2023-04-15T05:43:37.295Z,0.30
2023-04-15T05:44:41.907Z,0.33
2023-04-15T05:45:47.179Z,0.34
2023-04-15T05:46:52.260Z,0.28
2023-04-15T05:47:57.357Z,0.29
2023-04-15T05:49:01.626Z,0.31
2023-04-15T05:50:07.716Z,0.35
2023-04-15T05:51:11.724Z,0.35
2023-04-15T05:52:17.031Z,0.40
2023-04-15T05:53:21.124Z,0.43
2023-04-15T05:54:28.034Z,0.47
2023-04-15T05:55:32.275Z,0.60
2023-04-15T05:56:37.205Z,0.66
2023-04-15T05:57:42.098Z,0.64
2023-04-15T05:58:45.851Z,0.72
2023-04-15T05:59:51.853Z,0.76
2023-04-15T06:00:57.343Z,0.69
2023-04-15T06:02:02.260Z,0.57
2023-04-15T06:03:06.771Z,0.65
2023-04-15T06:04:11.958Z,0.68
2023-04-15T06:05:15.911Z,0.72
2023-04-15T06:06:20.644Z,0.66
2023-04-15T06:07:25.830Z,0.64
2023-04-15T06:08:29.903Z,0.64
2023-04-15T06:09:34.991Z,0.57
2023-04-15T06:10:38.862Z,0.49
2023-04-15T06:11:43.731Z,0.49
2023-04-15T06:12:48.665Z,0.53
2023-04-15T06:13:52.615Z,0.61
2023-04-15T06:14:58.946Z,0.56
2023-04-15T06:16:05.677Z,0.54
2023-04-15T06:17:10.981Z,0.56
2023-04-15T06:18:14.660Z,0.49
2023-04-15T06:19:20.060Z,0.54
2023-04-15T06:20:24.240Z,0.57
2023-04-15T06:21:29.062Z,0.61
2023-04-15T06:22:32.919Z,0.67
2023-04-15T06:23:38.016Z,0.67
2023-04-15T06:39:09.108Z,1.30
2023-04-15T06:40:13.522Z,1.30
2023-04-15T06:43:16.014Z,1.37
2023-04-15T06:44:19.965Z,1.36
2023-04-15T06:45:24.917Z,1.44
2023-04-15T06:46:29.125Z,1.48
2023-04-15T06:47:35.435Z,1.45
2023-04-15T06:48:39.288Z,1.44
2023-04-15T06:49:45.458Z,1.46
2023-04-15T06:50:51.109Z,1.44
2023-04-15T06:51:54.947Z,1.40
2023-04-15T06:52:59.630Z,1.30
2023-04-15T06:54:06.224Z,1.34
2023-04-15T06:55:11.836Z,1.35
2023-04-15T06:56:16.105Z,1.36
2023-04-15T06:57:20.926Z,1.37
2023-04-15T06:58:24.768Z,1.30
2023-04-15T06:59:29.695Z,1.38
2023-04-15T07:00:34.521Z,1.38
2023-04-15T07:01:39.362Z,1.41
2023-04-15T07:02:45.282Z,1.32
2023-04-15T07:03:50.449Z,1.51
2023-04-15T07:04:54.679Z,1.55
2023-04-15T07:06:00.171Z,1.54
2023-04-15T07:07:03.905Z,1.59
2023-04-15T07:08:08.758Z,1.60
2023-04-15T07:09:12.576Z,1.56
2023-04-15T07:10:17.368Z,1.57
2023-04-15T07:11:21.528Z,1.61
2023-04-15T07:12:26.463Z,1.65
2023-04-15T07:13:32.499Z,1.71
2023-04-15T07:14:38.048Z,1.73
2023-04-15T07:15:41.782Z,1.78
2023-04-15T07:16:46.713Z,1.81
2023-04-15T07:17:52.034Z,1.75
2023-04-15T07:18:57.462Z,1.73
2023-04-15T07:20:01.323Z,1.83
2023-04-15T07:21:06.660Z,1.88
2023-04-15T07:22:10.881Z,1.79
2023-04-15T07:23:16.557Z,1.89
2023-04-15T07:24:20.980Z,1.95
2023-04-15T07:25:26.031Z,1.97
2023-04-15T07:26:31.127Z,1.92
2023-04-15T07:27:35.029Z,2.00
2023-04-15T07:28:39.922Z,1.97
2023-04-15T07:29:43.638Z,1.96
2023-04-15T07:30:48.453Z,1.97
2023-04-15T07:31:52.160Z,1.99
2023-04-15T07:32:59.205Z,2.03
2023-04-15T07:34:03.065Z,1.99
2023-04-15T07:35:08.623Z,1.92
2023-04-15T07:36:13.497Z,1.82
2023-04-15T07:37:17.707Z,1.90
2023-04-15T07:38:22.750Z,1.94
2023-04-15T07:39:26.805Z,1.98
2023-04-15T07:40:31.785Z,1.99
2023-04-15T07:41:35.641Z,1.95
2023-04-15T07:42:41.366Z,2.01
2023-04-15T07:43:45.621Z,2.02
2023-04-15T07:44:50.751Z,2.04
2023-04-15T07:45:55.613Z,2.03
2023-04-15T07:47:04.770Z,2.12
2023-04-15T07:48:10.058Z,2.13
2023-04-15T07:49:15.275Z,2.14
2023-04-15T07:50:20.394Z,2.13
2023-04-15T07:51:24.352Z,2.10
2023-04-15T07:52:29.222Z,2.11
2023-04-15T07:53:33.526Z,2.04
2023-04-15T07:54:38.870Z,1.95
2023-04-15T07:55:43.823Z,2.00
2023-04-15T07:56:47.669Z,1.96
2023-04-15T07:57:52.514Z,1.98
2023-04-15T07:58:56.297Z,1.93
2023-04-15T08:00:01.293Z,1.96
2023-04-15T08:01:05.809Z,1.96
2023-04-15T08:02:12.469Z,2.07
2023-04-15T08:03:19.047Z,2.11
2023-04-15T08:04:23.295Z,2.19
2023-04-15T08:05:28.346Z,2.22
2023-04-15T08:06:32.205Z,2.24
2023-04-15T08:07:37.620Z,2.29
2023-04-15T08:08:41.848Z,2.32
2023-04-15T08:09:47.134Z,2.26
2023-04-15T08:10:52.678Z,2.28
2023-04-15T08:11:58.151Z,2.31
2023-04-15T08:13:01.892Z,2.36
2023-04-15T08:14:06.465Z,2.41
2023-04-15T08:15:13.340Z,2.43
2023-04-15T08:16:23.388Z,2.50
2023-04-15T08:17:27.416Z,2.53
2023-04-15T08:18:33.782Z,2.54
2023-04-15T08:19:38.719Z,2.53
2023-04-15T08:20:42.652Z,2.63
2023-04-15T08:21:47.773Z,2.68
2023-04-15T08:22:52.985Z,2.65
2023-04-15T08:23:57.969Z,2.71
2023-04-15T08:25:01.942Z,2.71
2023-04-15T08:26:07.077Z,2.73
2023-04-15T08:27:12.559Z,2.75
2023-04-15T08:28:17.574Z,2.72
2023-04-15T08:29:22.481Z,2.72
2023-04-15T08:30:27.279Z,2.69
2023-04-15T08:31:31.126Z,2.64
2023-04-15T08:32:36.483Z,2.77
2023-04-15T08:33:41.671Z,2.83
2023-04-15T08:34:46.620Z,2.86
2023-04-15T08:35:50.374Z,2.82
2023-04-15T08:36:54.948Z,2.88
2023-04-15T08:37:58.861Z,2.84
2023-04-15T08:39:05.263Z,2.80
2023-04-15T08:40:11.303Z,2.77
2023-04-15T08:41:22.840Z,2.80
2023-04-15T08:42:32.874Z,2.81
2023-04-15T08:43:39.154Z,2.89
2023-04-15T08:44:44.896Z,2.92
2023-04-15T08:45:51.953Z,2.89
2023-04-15T08:46:58.620Z,2.93
2023-04-15T08:48:05.607Z,2.93
2023-04-15T08:49:14.084Z,2.91
2023-04-15T08:50:19.243Z,2.94
2023-04-15T08:51:27.432Z,3.03
2023-04-15T08:52:32.470Z,3.05
2023-04-15T08:53:37.673Z,2.91
2023-04-15T08:54:42.443Z,3.05
2023-04-15T08:55:48.374Z,3.04
2023-04-15T08:56:54.755Z,3.08
2023-04-15T08:57:58.783Z,3.00
2023-04-15T08:59:04.181Z,3.04
2023-04-15T09:00:09.658Z,3.06
2023-04-15T09:01:15.552Z,3.08
2023-04-15T09:02:19.842Z,3.09
2023-04-15T09:03:25.218Z,3.08
2023-04-15T09:04:31.955Z,3.13
2023-04-15T09:05:36.859Z,3.15
2023-04-15T09:06:42.237Z,3.20
2023-04-15T09:07:47.125Z,3.23
2023-04-15T09:08:53.144Z,3.29
2023-04-15T09:09:57.070Z,3.35
2023-04-15T09:11:02.347Z,3.35
2023-04-15T09:12:06.407Z,3.43
2023-04-15T09:13:11.224Z,3.38
2023-04-15T09:14:16.108Z,3.47
2023-04-15T09:15:20.138Z,3.50
2023-04-15T09:16:25.192Z,3.43
2023-04-15T09:17:30.149Z,3.52
2023-04-15T09:18:36.603Z,3.56
2023-04-15T09:19:41.926Z,3.64
2023-04-15T09:20:46.975Z,3.68
2023-04-15T09:21:51.857Z,3.73
2023-04-15T09:22:56.635Z,3.81
2023-04-15T09:24:02.124Z,3.75
2023-04-15T09:25:28.056Z,3.73
2023-04-15T09:26:34.151Z,3.76
2023-04-15T09:27:39.131Z,3.78
2023-04-15T09:28:43.194Z,3.64
2023-04-15T09:29:51.984Z,3.71
2023-04-15T09:30:58.670Z,3.66
2023-04-15T09:32:14.965Z,3.62
2023-04-15T09:33:18.424Z,3.58
2023-04-15T09:34:23.526Z,3.47
2023-04-15T09:35:29.271Z,3.41
2023-04-15T09:36:53.132Z,3.35
2023-04-15T09:38:05.418Z,3.41
2023-04-15T09:39:10.454Z,3.49
2023-04-15T09:40:14.522Z,3.56
2023-04-15T09:41:20.109Z,3.61
2023-04-15T09:42:27.057Z,3.64
2023-04-15T09:43:42.408Z,3.64
2023-04-15T09:44:46.850Z,3.63
2023-04-15T09:45:53.230Z,3.67
2023-04-15T09:46:56.979Z,3.65
2023-04-15T09:48:02.480Z,3.67
2023-04-15T09:49:09.318Z,3.71
2023-04-15T09:50:15.230Z,3.76
2023-04-15T09:51:36.713Z,3.81
2023-04-15T09:52:43.413Z,3.89
2023-04-15T09:53:48.332Z,3.88
2023-04-15T09:54:55.166Z,3.90
2023-04-15T09:56:02.844Z,3.96
2023-04-15T09:57:07.546Z,4.01
2023-04-15T09:58:20.277Z,4.06
2023-04-15T09:59:25.423Z,4.07
2023-04-15T10:00:32.433Z,4.12
2023-04-15T10:01:36.995Z,4.20
2023-04-15T10:02:43.418Z,4.27
2023-04-15T10:03:48.930Z,4.38
2023-04-15T10:04:53.941Z,4.48
2023-04-15T10:06:01.475Z,4.55
2023-04-15T10:07:08.385Z,4.64
2023-04-15T10:08:14.139Z,4.71
2023-04-15T10:09:19.604Z,4.70
2023-04-15T10:10:23.321Z,4.70
2023-04-15T10:11:31.781Z,4.78
2023-04-15T10:12:40.029Z,4.86
2023-04-15T10:13:45.499Z,4.87
2023-04-15T10:14:58.233Z,4.81
2023-04-15T10:16:07.961Z,4.93
2023-04-15T10:17:14.063Z,4.93
2023-04-15T10:18:21.354Z,4.94
2023-04-15T10:19:32.591Z,4.96
2023-04-15T10:20:38.555Z,4.96
2023-04-15T10:21:42.813Z,5.00
2023-04-15T10:22:49.574Z,5.00
2023-04-15T10:23:54.108Z,5.02
2023-04-15T10:25:00.034Z,4.96
2023-04-15T10:26:06.507Z,4.97
2023-04-15T10:27:11.528Z,4.90
2023-04-15T10:28:17.754Z,4.94
2023-04-15T10:29:21.568Z,4.89
2023-04-15T10:30:26.811Z,4.98
2023-04-15T10:31:32.730Z,5.03
2023-04-15T10:32:38.010Z,4.87
2023-04-15T10:33:44.345Z,4.94
2023-04-15T10:34:49.809Z,5.08
2023-04-15T10:35:58.342Z,5.01
2023-04-15T10:37:04.078Z,5.07
2023-04-15T10:38:38.035Z,5.18
2023-04-15T10:39:45.102Z,5.25
2023-04-15T10:40:52.006Z,5.25
2023-04-15T10:42:07.621Z,5.21
2023-04-15T10:43:27.852Z,5.41
2023-04-15T10:44:31.644Z,5.62
2023-04-15T10:45:38.571Z,5.67
2023-04-15T10:46:43.979Z,5.45
2023-04-15T10:47:54.668Z,5.58
2023-04-15T10:48:59.531Z,5.72
2023-04-15T10:50:03.835Z,5.85
2023-04-15T10:51:09.567Z,5.92
2023-04-15T10:52:15.343Z,6.08
2023-04-15T10:53:29.646Z,6.18
2023-04-15T10:54:36.456Z,6.25
2023-04-15T10:55:41.428Z,6.26
2023-04-15T10:56:46.382Z,6.32
2023-04-15T10:57:55.101Z,6.45
2023-04-15T10:59:01.628Z,6.44
2023-04-15T11:00:15.087Z,6.57
2023-04-15T11:01:23.411Z,6.46
2023-04-15T11:02:41.837Z,6.48
2023-04-15T11:03:51.643Z,6.42
2023-04-15T11:04:57.688Z,6.44
2023-04-15T11:06:02.717Z,6.63
2023-04-15T11:07:07.394Z,6.59
2023-04-15T11:08:12.898Z,6.67
2023-04-15T11:09:33.078Z,6.54
2023-04-15T11:10:55.253Z,6.92
2023-04-15T11:12:10.673Z,6.90
2023-04-15T11:13:17.870Z,7.05
2023-04-15T11:14:22.802Z,7.24
2023-04-15T11:15:30.904Z,7.33
2023-04-15T11:16:45.297Z,7.50
2023-04-15T11:17:49.155Z,7.66
2023-04-15T11:18:57.727Z,7.64
2023-04-15T11:20:01.914Z,7.71
2023-04-15T11:21:08.624Z,7.67
2023-04-15T11:22:12.755Z,7.61
2023-04-15T11:23:18.936Z,7.51
2023-04-15T11:24:28.003Z,7.31
2023-04-15T11:25:33.381Z,7.35
2023-04-15T11:26:40.639Z,7.56
2023-04-15T11:27:44.528Z,7.55
2023-04-15T11:28:49.441Z,7.38
2023-04-15T11:29:53.480Z,7.38
2023-04-15T11:30:59.444Z,7.27
2023-04-15T11:32:08.597Z,7.11
2023-04-15T11:33:14.065Z,6.89
2023-04-15T11:34:24.867Z,7.06
2023-04-15T11:35:29.077Z,7.02
2023-04-15T11:36:33.927Z,7.05
2023-04-15T11:37:37.761Z,7.03
2023-04-15T11:38:45.493Z,7.21
2023-04-15T11:39:51.205Z,7.25
2023-04-15T11:40:56.508Z,7.31
2023-04-15T11:42:01.714Z,7.48
2023-04-15T11:43:07.986Z,7.54
2023-04-15T11:44:18.522Z,7.41
2023-04-15T11:45:22.245Z,7.54
2023-04-15T11:46:31.009Z,7.54
2023-04-15T11:47:36.348Z,7.57
2023-04-15T11:48:45.287Z,7.66
2023-04-15T11:49:49.017Z,7.65
2023-04-15T11:50:57.561Z,7.73
2023-04-15T11:52:01.501Z,8.06
2023-04-15T11:53:08.312Z,8.22
2023-04-15T11:54:21.428Z,8.16
2023-04-15T11:55:24.708Z,8.03
2023-04-15T11:56:28.759Z,8.07
2023-04-15T11:57:35.734Z,8.13
2023-04-15T11:58:40.899Z,8.08
2023-04-15T11:59:45.825Z,8.11
2023-04-15T12:00:52.643Z,8.06
2023-04-15T12:01:55.328Z,8.34
2023-04-15T12:03:14.182Z,8.47
2023-04-15T12:04:25.234Z,8.32
2023-04-15T12:05:28.973Z,8.50
2023-04-15T12:06:35.225Z,8.60
2023-04-15T12:07:59.028Z,8.78
2023-04-15T12:09:06.101Z,8.95
2023-04-15T12:10:09.869Z,8.95
2023-04-15T12:11:12.827Z,9.13
2023-04-15T12:12:16.491Z,8.97
2023-04-15T12:13:21.237Z,8.95
2023-04-15T12:14:28.634Z,8.89
2023-04-15T12:15:31.738Z,8.76
2023-04-15T12:16:49.214Z,8.87
2023-04-15T12:17:56.560Z,8.40
2023-04-15T12:19:04.797Z,8.32
2023-04-15T12:20:09.694Z,8.55
2023-04-15T12:21:12.568Z,8.59
2023-04-15T12:22:18.688Z,8.52
2023-04-15T12:23:21.267Z,8.54
2023-04-15T12:24:24.942Z,8.35
2023-04-15T12:25:35.537Z,8.44
2023-04-15T12:26:45.191Z,8.63
2023-04-15T12:27:53.828Z,8.61
2023-04-15T12:29:02.391Z,8.56
2023-04-15T12:30:08.231Z,8.19
2023-04-15T12:31:11.688Z,8.59
2023-04-15T12:32:16.500Z,8.67
2023-04-15T12:33:19.558Z,8.80
2023-04-15T12:34:29.604Z,8.79
2023-04-15T12:35:33.416Z,9.09
2023-04-15T12:36:37.391Z,9.05
2023-04-15T12:37:41.198Z,9.31
2023-04-15T12:38:44.137Z,9.51
2023-04-15T12:39:49.752Z,9.61
2023-04-15T12:40:52.645Z,9.36
2023-04-15T12:41:56.750Z,9.16
2023-04-15T12:42:59.420Z,9.12
2023-04-15T12:44:04.937Z,9.09
2023-04-15T12:45:08.434Z,8.81
2023-04-15T12:46:12.065Z,8.68
2023-04-15T12:47:16.059Z,8.47
2023-04-15T12:48:18.961Z,8.55
2023-04-15T12:49:23.137Z,8.40
2023-04-15T12:50:25.660Z,8.41
2023-04-15T12:51:32.135Z,8.23
2023-04-15T12:52:34.767Z,8.21
2023-04-15T12:53:38.770Z,8.27
2023-04-15T12:54:41.574Z,8.29
2023-04-15T12:55:45.569Z,8.38
2023-04-15T12:56:51.275Z,8.31
2023-04-15T12:57:54.138Z,8.24
2023-04-15T12:58:57.761Z,8.37
2023-04-15T13:00:01.692Z,8.41
2023-04-15T13:01:05.641Z,8.74
2023-04-15T13:02:09.132Z,8.58
2023-04-15T13:03:12.949Z,8.79
2023-04-15T13:04:19.565Z,9.03
2023-04-15T13:05:22.783Z,9.22
2023-04-15T13:06:26.434Z,9.40
2023-04-15T13:07:29.035Z,9.49
2023-04-15T13:08:32.746Z,9.46
2023-04-15T13:09:35.410Z,9.03
2023-04-15T13:10:39.564Z,8.99
2023-04-15T13:11:42.145Z,8.44
2023-04-15T13:12:47.218Z,8.48
2023-04-15T13:13:52.451Z,8.39
2023-04-15T13:14:56.202Z,8.11
2023-04-15T13:16:00.819Z,7.88
2023-04-15T13:17:09.065Z,7.49
2023-04-15T13:18:12.034Z,7.37
2023-04-15T13:19:16.061Z,7.24
2023-04-15T13:20:18.844Z,7.10
2023-04-15T13:21:22.849Z,6.95
2023-04-15T13:22:25.499Z,6.94
2023-04-15T13:23:29.275Z,6.85
2023-04-15T13:24:32.214Z,6.78
2023-04-15T13:25:35.974Z,6.65
2023-04-15T13:26:39.261Z,6.62
2023-04-15T13:27:42.862Z,6.63
2023-04-15T13:28:46.801Z,6.45
2023-04-15T13:29:50.374Z,6.37
2023-04-15T13:30:53.829Z,6.31
2023-04-15T13:31:59.287Z,6.35
2023-04-15T13:33:03.081Z,6.33
2023-04-15T13:34:05.336Z,6.28
2023-04-15T13:35:09.850Z,6.21
2023-04-15T13:36:12.640Z,6.12
2023-04-15T13:37:16.756Z,6.06
2023-04-15T13:38:19.753Z,6.02
2023-04-15T13:39:23.509Z,6.07
2023-04-15T13:40:26.071Z,6.07
2023-04-15T13:41:29.743Z,6.08
2023-04-15T13:42:32.604Z,6.07
2023-04-15T13:43:36.223Z,6.07
2023-04-15T13:44:38.890Z,6.07
2023-04-15T13:45:42.540Z,6.05
2023-04-15T13:46:46.438Z,6.06
2023-04-15T13:47:52.205Z,6.00
2023-04-15T13:48:55.241Z,5.96
2023-04-15T13:49:59.843Z,5.92
2023-04-15T13:51:03.665Z,5.91
2023-04-15T13:52:06.856Z,5.86
2023-04-15T13:53:10.765Z,5.81
2023-04-15T13:54:13.514Z,5.83
2023-04-15T13:55:20.254Z,5.82
2023-04-15T13:56:24.132Z,5.80
2023-04-15T13:57:28.075Z,5.79
2023-04-15T13:58:30.796Z,5.78
2023-04-15T13:59:35.167Z,5.74
2023-04-15T14:00:39.006Z,5.70
2023-04-15T14:01:41.685Z,5.69
2023-04-15T14:02:45.436Z,5.63
2023-04-15T14:03:51.268Z,5.60
2023-04-15T14:04:54.906Z,5.68
2023-04-15T14:05:58.934Z,5.60
2023-04-15T14:07:03.295Z,5.66
2023-04-15T14:08:08.497Z,5.66
2023-04-15T14:09:11.743Z,5.62
2023-04-15T14:10:15.454Z,5.68
2023-04-15T14:11:18.050Z,5.69
2023-04-15T14:12:21.887Z,5.69
2023-04-15T14:13:25.100Z,5.65
2023-04-15T14:14:27.823Z,5.62
2023-04-15T14:15:31.622Z,5.61
2023-04-15T14:16:33.841Z,5.61
2023-04-15T14:17:37.582Z,5.61
2023-04-15T14:18:40.764Z,5.56
2023-04-15T14:19:46.250Z,5.52
2023-04-15T14:20:48.895Z,5.51
2023-04-15T14:21:52.596Z,5.57
2023-04-15T14:22:56.290Z,5.56
2023-04-15T14:23:58.991Z,5.53
2023-04-15T14:25:03.131Z,5.54
2023-04-15T14:26:06.006Z,5.53
2023-04-15T14:27:11.401Z,5.50
2023-04-15T14:28:14.169Z,5.50
2023-04-15T14:29:18.219Z,5.48
2023-04-15T14:30:22.350Z,5.50
2023-04-15T14:31:25.058Z,5.50
2023-04-15T14:32:29.219Z,5.47
2023-04-15T14:33:32.313Z,5.46
2023-04-15T14:34:35.953Z,5.43
2023-04-15T14:35:39.844Z,5.45
2023-04-15T14:36:43.511Z,5.41
2023-04-15T14:37:45.759Z,5.44
2023-04-15T14:38:49.504Z,5.42
2023-04-15T14:39:53.236Z,5.41
2023-04-15T14:40:56.051Z,5.38
2023-04-15T14:42:00.109Z,5.42
2023-04-15T14:43:02.732Z,5.39
2023-04-15T14:44:09.729Z,5.31
2023-04-15T14:45:12.995Z,5.37
2023-04-15T14:46:17.143Z,5.32
2023-04-15T14:47:20.126Z,5.31
2023-04-15T14:48:23.963Z,5.29
2023-04-15T14:49:26.336Z,5.30
2023-04-15T14:50:30.216Z,5.30
2023-04-15T14:51:34.649Z,5.29